createdAt,value
2022-09-07T00:01:10.499Z,94575.94
2022-09-07T00:03:37.336Z,94563.50
2022-09-07T00:06:12.745Z,94565.34
2022-09-07T00:08:41.518Z,94558.97
2022-09-07T00:11:14.313Z,94551.28
2022-09-07T00:13:43.475Z,94550.81
2022-09-07T00:16:17.366Z,94548.78
2022-09-07T00:18:46.230Z,94531.41
2022-09-07T00:21:15.744Z,94529.97
2022-09-07T00:23:42.797Z,94521.00
2022-09-07T00:26:20.517Z,94534.28
2022-09-07T00:28:48.478Z,94519.78
2022-09-07T00:31:22.698Z,94525.25
2022-09-07T00:33:51.989Z,94520.16
2022-09-07T00:36:21.633Z,94526.47
2022-09-07T00:38:48.550Z,94507.50
2022-09-07T00:41:16.683Z,94520.38
2022-09-07T00:43:48.875Z,94521.00
2022-09-07T00:46:22.401Z,94521.00
2022-09-07T00:49:17.351Z,94517.75
2022-09-07T00:51:53.722Z,94513.63
2022-09-07T00:54:44.842Z,94521.25
2022-09-07T00:57:12.202Z,94520.63
2022-09-07T00:59:48.110Z,94521.03
2022-09-07T01:02:17.549Z,94524.50
2022-09-07T01:04:49.750Z,94534.91
2022-09-07T01:07:16.620Z,94537.34
2022-09-07T01:09:46.857Z,94546.16
2022-09-07T01:12:14.312Z,94530.00
2022-09-07T01:14:46.593Z,94534.28
2022-09-07T01:17:49.278Z,94542.66
2022-09-07T01:20:50.830Z,94544.50
2022-09-07T01:23:55.280Z,94542.06
2022-09-07T01:26:50.184Z,94543.28
2022-09-07T01:29:37.633Z,94543.91
2022-09-07T01:32:41.806Z,94551.63
2022-09-07T01:35:22.365Z,94541.03
2022-09-07T01:38:15.010Z,94544.72
2022-09-07T01:41:14.606Z,94545.75
2022-09-07T01:44:12.229Z,94549.00
2022-09-07T01:46:52.959Z,94551.06
2022-09-07T01:49:25.346Z,94553.28
2022-09-07T01:51:59.326Z,94538.78
2022-09-07T01:54:39.145Z,94538.59
2022-09-07T01:57:15.022Z,94548.38
2022-09-07T01:59:48.794Z,94533.72
2022-09-07T02:02:22.118Z,94546.59
2022-09-07T02:05:04.054Z,94542.09
2022-09-07T02:07:44.041Z,94547.19
2022-09-07T02:10:16.782Z,94548.41
2022-09-07T02:12:53.228Z,94541.69
2022-09-07T02:15:39.273Z,94548.00
2022-09-07T02:18:09.051Z,94545.56
2022-09-07T02:20:39.363Z,94547.41
2022-09-07T02:23:17.590Z,94548.91
2022-09-07T02:25:53.717Z,94557.44
2022-09-07T02:28:29.774Z,94551.31
2022-09-07T02:30:56.813Z,94539.69
2022-09-07T02:33:24.295Z,94519.75
2022-09-07T02:35:52.164Z,94544.81
2022-09-07T02:38:19.610Z,94548.91
2022-09-07T02:40:54.987Z,94551.38
2022-09-07T02:43:23.540Z,94561.16
2022-09-07T02:46:30.461Z,94568.31
2022-09-07T02:49:19.415Z,94557.06
2022-09-07T02:51:55.028Z,94567.91
2022-09-07T02:54:52.903Z,94553.00
2022-09-07T02:57:49.908Z,94556.69
2022-09-07T03:00:25.977Z,94552.41
2022-09-07T03:03:21.013Z,94553.63
2022-09-07T03:06:04.996Z,94551.97
2022-09-07T03:08:51.009Z,94554.63
2022-09-07T03:11:18.550Z,94557.47
2022-09-07T03:13:45.341Z,94549.72
2022-09-07T03:16:14.637Z,94547.91
2022-09-07T03:18:43.157Z,94540.69
2022-09-07T03:21:10.974Z,94555.41
2022-09-07T03:23:37.879Z,94553.38
2022-09-07T03:26:05.416Z,94559.94
2022-09-07T03:28:32.353Z,94557.03
2022-09-07T03:31:01.394Z,94565.22
2022-09-07T03:33:28.197Z,94573.41
2022-09-07T03:36:01.720Z,94579.91
2022-09-07T03:38:30.689Z,94585.19
2022-09-07T03:41:03.349Z,94580.69
2022-09-07T03:43:31.232Z,94576.63
2022-09-07T03:46:04.636Z,94562.53
2022-09-07T03:48:35.593Z,94575.78
2022-09-07T03:51:07.272Z,94567.22
2022-09-07T03:53:37.188Z,94563.56
2022-09-07T03:56:12.473Z,94563.94
2022-09-07T03:58:39.659Z,94559.03
2022-09-07T04:01:13.318Z,94568.00
2022-09-07T04:03:40.157Z,94572.47
2022-09-07T04:06:07.085Z,94583.25
2022-09-07T04:08:36.224Z,94578.13
2022-09-07T04:11:06.404Z,94583.84
2022-09-07T04:13:35.889Z,94596.88
2022-09-07T04:16:23.587Z,94590.16
2022-09-07T04:18:51.824Z,94597.66
2022-09-07T04:21:18.957Z,94578.88
2022-09-07T04:23:45.989Z,94583.34
2022-09-07T04:26:29.126Z,94605.22
2022-09-07T04:28:56.776Z,94595.03
2022-09-07T04:31:24.706Z,94598.44
2022-09-07T04:33:54.807Z,94597.16
2022-09-07T04:36:24.928Z,94596.38
2022-09-07T04:39:00.869Z,94600.84
2022-09-07T04:41:31.156Z,94589.81
2022-09-07T04:44:02.345Z,94600.41
2022-09-07T04:46:33.907Z,94607.31
2022-09-07T04:49:07.073Z,94599.63
2022-09-07T04:51:35.359Z,94587.59
2022-09-07T04:54:04.581Z,94600.84
2022-09-07T04:56:32.717Z,94590.63
2022-09-07T04:59:01.949Z,94596.16
2022-09-07T05:01:29.616Z,94580.22
2022-09-07T05:03:56.454Z,94578.84
2022-09-07T05:06:23.810Z,94583.56
2022-09-07T05:08:54.426Z,94581.31
2022-09-07T05:11:28.448Z,94584.16
2022-09-07T05:14:00.709Z,94581.34
2022-09-07T05:16:28.922Z,94577.81
2022-09-07T05:19:01.757Z,94588.22
2022-09-07T05:21:35.280Z,94599.47
2022-09-07T05:24:04.113Z,94583.78
2022-09-07T05:26:34.150Z,94598.47
2022-09-07T05:32:08.653Z,94586.19
2022-09-07T05:34:35.534Z,94599.69
2022-09-07T05:37:02.736Z,94606.03
2022-09-07T05:39:29.796Z,94607.47
2022-09-07T05:41:56.912Z,94607.47
2022-09-07T05:47:11.842Z,94606.25
2022-09-07T05:49:38.646Z,94614.97
2022-09-07T05:52:05.494Z,94608.69
2022-09-07T05:54:32.286Z,94623.44
2022-09-07T05:56:59.081Z,94618.94
2022-09-07T05:59:25.881Z,94610.84
2022-09-07T06:01:53.335Z,94603.50
2022-09-07T06:04:20.323Z,94610.47
2022-09-07T06:06:59.255Z,94594.56
2022-09-07T06:09:34.449Z,94592.94
2022-09-07T06:12:05.423Z,94604.19
2022-09-07T06:14:33.539Z,94603.34
2022-09-07T06:17:00.546Z,94586.00
2022-09-07T06:19:27.368Z,94592.16
2022-09-07T06:21:54.302Z,94589.50
2022-09-07T06:24:21.120Z,94604.22
2022-09-07T06:26:47.925Z,94596.47
2022-09-07T06:29:14.851Z,94597.50
2022-09-07T06:34:29.603Z,94613.63
2022-09-07T06:36:56.778Z,94591.78
2022-09-07T06:39:23.604Z,94588.50
2022-09-07T06:44:25.315Z,94584.84
2022-09-07T06:47:07.476Z,94603.81
2022-09-07T06:49:34.329Z,94572.41
2022-09-07T06:52:01.113Z,94578.50
2022-09-07T06:57:14.833Z,94588.06
2022-09-07T06:59:41.661Z,94603.38
2022-09-07T07:02:13.610Z,94580.28
2022-09-07T07:04:41.369Z,94605.81
2022-09-07T07:07:15.052Z,94621.53
2022-09-07T07:09:42.625Z,94620.66
2022-09-07T07:12:10.876Z,94633.66
2022-09-07T07:14:41.087Z,94638.72
2022-09-07T07:17:11.138Z,94637.03
2022-09-07T07:19:37.910Z,94622.44
2022-09-07T07:22:18.784Z,94625.06
2022-09-07T07:24:51.512Z,94622.91
2022-09-07T07:27:18.335Z,94632.38
2022-09-07T07:29:46.203Z,94640.81
2022-09-07T07:32:12.986Z,94646.41
2022-09-07T07:34:39.743Z,94639.75
2022-09-07T07:37:06.736Z,94650.06
2022-09-07T07:42:21.222Z,94630.22
2022-09-07T07:44:48.736Z,94645.63
2022-09-07T07:47:15.827Z,94644.94
2022-09-07T07:49:42.686Z,94650.94
2022-09-07T07:54:56.342Z,94656.94
2022-09-07T07:57:23.319Z,94652.41
2022-09-07T07:59:50.170Z,94650.13
2022-09-07T08:02:17.648Z,94646.28
2022-09-07T08:04:44.821Z,94656.38
2022-09-07T08:07:15.269Z,94645.34
2022-09-07T08:09:44.588Z,94650.56
2022-09-07T08:12:16.727Z,94638.88
2022-09-07T08:14:43.935Z,94632.03
2022-09-07T08:17:15.019Z,94640.28
2022-09-07T08:19:42.341Z,94641.88
2022-09-07T08:22:10.906Z,94635.56
2022-09-07T08:24:37.871Z,94631.84
2022-09-07T08:27:05.007Z,94639.00
2022-09-07T08:29:34.513Z,94651.06
2022-09-07T08:32:04.542Z,94648.72
2022-09-07T08:34:31.385Z,94633.91
2022-09-07T08:36:58.407Z,94638.16
2022-09-07T08:39:25.130Z,94639.34
2022-09-07T08:41:51.736Z,94651.81
2022-09-07T08:44:22.965Z,94642.88
2022-09-07T08:46:56.494Z,94643.63
2022-09-07T08:49:56.842Z,94627.59
2022-09-07T08:52:39.106Z,94630.03
2022-09-07T08:55:19.488Z,94642.88
2022-09-07T08:58:51.323Z,94640.13
2022-09-07T09:01:32.558Z,94637.03
2022-09-07T09:04:17.011Z,94633.31
2022-09-07T09:07:10.486Z,94634.28
2022-09-07T09:10:10.730Z,94624.38
2022-09-07T09:13:01.806Z,94642.03
2022-09-07T09:15:44.854Z,94622.69
2022-09-07T09:18:33.718Z,94630.06
2022-09-07T09:21:01.272Z,94628.28
2022-09-07T09:23:40.541Z,94639.03
2022-09-07T09:26:13.067Z,94638.16
2022-09-07T09:28:40.246Z,94621.13
2022-09-07T09:31:15.863Z,94623.00
2022-09-07T09:33:42.694Z,94618.16
2022-09-07T09:36:31.782Z,94614.31
2022-09-07T09:38:58.645Z,94613.06
2022-09-07T09:41:27.063Z,94617.16
2022-09-07T09:43:56.529Z,94619.38
2022-09-07T09:46:34.363Z,94621.69
2022-09-07T09:49:05.451Z,94618.81
2022-09-07T09:54:43.928Z,94600.38
2022-09-07T09:57:36.712Z,94597.75
2022-09-07T10:00:10.519Z,94611.31
2022-09-07T10:05:58.449Z,94601.84
2022-09-07T10:08:33.421Z,94596.16
2022-09-07T10:11:06.231Z,94579.94
2022-09-07T10:13:46.886Z,94591.03
2022-09-07T10:16:15.109Z,94587.38
2022-09-07T10:18:58.810Z,94580.66
2022-09-07T10:21:32.922Z,94569.28
2022-09-07T10:24:05.736Z,94574.28
2022-09-07T10:26:38.308Z,94571.88
2022-09-07T10:29:12.557Z,94574.66
2022-09-07T10:32:03.071Z,94567.16
2022-09-07T10:34:48.507Z,94553.25
2022-09-07T10:37:48.629Z,94553.25
2022-09-07T10:40:53.072Z,94541.66
2022-09-07T10:43:35.235Z,94534.38
2022-09-07T10:49:33.721Z,94543.50
2022-09-07T10:52:17.930Z,94528.31
2022-09-07T10:54:55.280Z,94535.28
2022-09-07T10:58:00.955Z,94532.53
2022-09-07T11:00:49.622Z,94517.19
2022-09-07T11:03:54.446Z,94530.03
2022-09-07T11:06:41.525Z,94527.47
2022-09-07T11:09:46.022Z,94528.25
2022-09-07T11:12:36.962Z,94510.66
2022-09-07T11:15:12.365Z,94507.38
2022-09-07T11:17:49.355Z,94494.16
2022-09-07T11:20:45.377Z,94511.84
2022-09-07T11:23:20.316Z,94500.84
2022-09-07T11:25:58.817Z,94503.53
2022-09-07T11:29:29.178Z,94497.72
2022-09-07T11:31:45.290Z,94489.72
2022-09-07T11:34:26.793Z,94496.22
2022-09-07T11:37:03.528Z,94484.56
2022-09-07T11:39:36.545Z,94489.81
2022-09-07T11:45:28.780Z,94478.75
2022-09-07T11:48:05.028Z,94480.63
2022-09-07T11:50:39.378Z,94470.44
2022-09-07T11:53:19.009Z,94475.41
2022-09-07T11:55:54.198Z,94475.59
2022-09-07T11:58:20.846Z,94475.06
2022-09-07T12:01:02.360Z,94473.09
2022-09-07T12:04:06.624Z,94485.53
2022-09-07T12:06:54.553Z,94473.91
2022-09-07T12:09:46.453Z,94461.75
2022-09-07T12:12:13.155Z,94462.78
2022-09-07T12:15:30.605Z,94462.84
2022-09-07T12:18:02.827Z,94468.25
2022-09-07T12:20:48.973Z,94464.09
2022-09-07T12:23:15.638Z,94471.59
2022-09-07T12:25:48.194Z,94475.41
2022-09-07T12:28:24.107Z,94473.72
2022-09-07T12:30:56.187Z,94464.63
2022-09-07T12:33:29.653Z,94467.00
2022-09-07T12:35:59.090Z,94466.47
2022-09-07T12:38:31.680Z,94469.06
2022-09-07T12:41:04.469Z,94468.72
2022-09-07T12:43:44.426Z,94470.41
2022-09-07T12:46:40.929Z,94469.88
2022-09-07T12:50:06.713Z,94467.44
2022-09-07T12:53:08.866Z,94455.44
2022-09-07T12:59:05.168Z,94448.34
2022-09-07T13:01:55.988Z,94450.94
2022-09-07T13:04:50.251Z,94444.97
2022-09-07T13:07:51.569Z,94440.56
2022-09-07T13:10:33.011Z,94421.72
2022-09-07T13:13:17.793Z,94437.63
2022-09-07T13:15:48.581Z,94430.63
2022-09-07T13:18:27.502Z,94426.41
2022-09-07T13:21:09.078Z,94421.25
2022-09-07T13:23:45.489Z,94403.81
2022-09-07T13:26:51.848Z,94408.88
2022-09-07T13:29:24.638Z,94394.84
2022-09-07T13:32:17.857Z,94401.97
2022-09-07T13:34:55.203Z,94389.94
2022-09-07T13:37:27.482Z,94370.91
2022-09-07T13:39:58.109Z,94381.38
2022-09-07T13:42:34.186Z,94384.69
2022-09-07T13:45:07.326Z,94374.59
2022-09-07T13:48:01.619Z,94371.09
2022-09-07T13:50:34.426Z,94372.22
2022-09-07T13:53:36.575Z,94376.47
2022-09-07T13:56:36.850Z,94379.16
2022-09-07T13:59:22.884Z,94375.03
2022-09-07T14:01:50.779Z,94376.50
2022-09-07T14:04:32.328Z,94373.94
2022-09-07T14:07:13.142Z,94369.84
2022-09-07T14:09:40.349Z,94371.59
2022-09-07T14:12:16.749Z,94367.00
2022-09-07T14:14:43.520Z,94362.22
2022-09-07T14:17:16.859Z,94372.88
2022-09-07T14:19:49.871Z,94367.94
2022-09-07T14:22:24.619Z,94366.56
2022-09-07T14:24:57.307Z,94371.72
2022-09-07T14:27:36.857Z,94366.63
2022-09-07T14:30:31.995Z,94362.47
2022-09-07T14:33:17.323Z,94355.75
2022-09-07T14:35:44.363Z,94357.72
2022-09-07T14:38:14.244Z,94355.09
2022-09-07T14:40:41.517Z,94358.44
2022-09-07T14:43:27.716Z,94357.78
2022-09-07T14:45:54.615Z,94348.41
2022-09-07T14:48:31.496Z,94352.28
2022-09-07T14:51:19.349Z,94345.50
2022-09-07T14:53:55.869Z,94330.94
2022-09-07T14:56:30.333Z,94331.91
2022-09-07T14:58:57.155Z,94328.75
2022-09-07T15:01:41.559Z,94338.84
2022-09-07T15:04:21.275Z,94345.34
2022-09-07T15:07:03.656Z,94343.59
2022-09-07T15:09:37.105Z,94335.84
2022-09-07T15:12:24.892Z,94333.03
2022-09-07T15:15:21.435Z,94339.19
2022-09-07T15:17:48.674Z,94342.25
2022-09-07T15:20:47.560Z,94343.00
2022-09-07T15:23:19.556Z,94343.56
2022-09-07T15:25:53.562Z,94333.59
2022-09-07T15:34:20.620Z,94322.53
2022-09-07T15:36:51.013Z,94304.44
2022-09-07T15:39:23.508Z,94305.72
2022-09-07T15:41:51.640Z,94299.94
2022-09-07T15:44:24.314Z,94296.31
2022-09-07T15:49:47.412Z,94295.31
2022-09-07T15:52:17.093Z,94281.66
2022-09-07T15:54:44.148Z,94281.66
2022-09-07T15:59:57.990Z,94264.91
2022-09-07T16:05:11.636Z,94267.66
2022-09-07T16:10:26.617Z,94247.78
2022-09-07T16:13:02.251Z,94256.25
2022-09-07T16:15:30.881Z,94254.03
2022-09-07T16:17:57.681Z,94237.88
2022-09-07T16:20:24.474Z,94253.97
2022-09-07T16:25:39.510Z,94260.25
2022-09-07T16:28:07.302Z,94256.75
2022-09-07T16:30:38.927Z,94254.69
2022-09-07T16:33:05.956Z,94253.25
2022-09-07T16:35:33.057Z,94258.16
2022-09-07T16:40:46.891Z,94264.16
2022-09-07T16:43:13.682Z,94261.25
2022-09-07T16:48:27.182Z,94260.53
2022-09-07T16:51:01.240Z,94268.38
2022-09-07T16:53:30.860Z,94252.22
2022-09-07T16:56:05.998Z,94258.22
2022-09-07T16:58:36.728Z,94264.69
2022-09-07T17:01:06.717Z,94264.16
2022-09-07T17:03:34.284Z,94263.88
2022-09-07T17:06:01.198Z,94254.44
2022-09-07T17:08:28.355Z,94263.31
2022-09-07T17:11:23.708Z,94244.44
2022-09-07T17:13:51.979Z,94255.75
2022-09-07T17:16:23.301Z,94255.50
2022-09-07T17:21:40.135Z,94239.34
2022-09-07T17:24:09.778Z,94240.59
2022-09-07T17:26:36.981Z,94237.06
2022-09-07T17:29:04.159Z,94226.28
2022-09-07T17:34:21.718Z,94241.56
2022-09-07T17:36:48.568Z,94253.09
2022-09-07T17:39:17.608Z,94243.59
2022-09-07T17:41:47.382Z,94248.44
2022-09-07T17:44:15.299Z,94234.28
2022-09-07T17:46:42.299Z,94257.41
2022-09-07T17:49:12.493Z,94242.84
2022-09-07T17:51:39.835Z,94239.53
2022-09-07T17:54:11.689Z,94256.25
2022-09-07T17:56:40.472Z,94250.88
2022-09-07T18:01:55.214Z,94232.34
2022-09-07T18:04:22.920Z,94241.94
2022-09-07T18:06:49.873Z,94247.25
2022-09-07T18:09:17.508Z,94266.63
2022-09-07T18:11:45.829Z,94263.81
2022-09-07T18:14:14.360Z,94264.34
2022-09-07T18:16:43.034Z,94279.81
2022-09-07T18:19:11.897Z,94286.13
2022-09-07T18:21:42.160Z,94295.47
2022-09-07T18:24:18.258Z,94298.88
2022-09-07T18:26:52.034Z,94315.06
2022-09-07T18:29:32.401Z,94331.09
2022-09-07T18:32:01.215Z,94333.72
2022-09-07T18:34:31.889Z,94337.91
2022-09-07T18:36:59.731Z,94326.66
2022-09-07T18:39:27.451Z,94323.56
2022-09-07T18:41:55.072Z,94328.63
2022-09-07T18:47:08.894Z,94322.69
2022-09-07T18:49:35.662Z,94316.78
2022-09-07T18:54:50.537Z,94317.22
2022-09-07T18:57:17.351Z,94299.88
2022-09-07T18:59:44.159Z,94303.94
2022-09-07T19:02:11.309Z,94306.34
2022-09-07T19:07:29.652Z,94332.31
2022-09-07T19:09:57.185Z,94327.88
2022-09-07T19:12:24.573Z,94341.03
2022-09-07T19:14:51.713Z,94326.69
2022-09-07T19:17:19.089Z,94327.25
2022-09-07T19:19:45.851Z,94329.59
2022-09-07T19:22:12.646Z,94347.34
2022-09-07T19:24:39.382Z,94349.78
2022-09-07T19:27:07.341Z,94352.28
2022-09-07T19:29:34.183Z,94359.34
2022-09-07T19:32:07.803Z,94366.06
2022-09-07T19:34:40.459Z,94373.97
2022-09-07T19:37:10.213Z,94375.84
2022-09-07T19:39:37.209Z,94360.03
2022-09-07T19:42:06.140Z,94363.84
2022-09-07T19:44:33.369Z,94355.88
2022-09-07T19:47:01.003Z,94364.91
2022-09-07T19:49:28.714Z,94364.34
2022-09-07T19:51:55.559Z,94349.38
2022-09-07T19:54:22.377Z,94353.41
2022-09-07T19:56:49.253Z,94329.16
2022-09-07T19:59:16.162Z,94308.94
2022-09-07T20:01:46.498Z,94309.09
2022-09-07T20:04:20.387Z,94308.19
2022-09-07T20:06:50.272Z,94297.25
2022-09-07T20:09:20.314Z,94284.47
2022-09-07T20:11:48.165Z,94290.97
2022-09-07T20:14:19.274Z,94297.38
2022-09-07T20:16:46.065Z,94292.03
2022-09-07T20:19:15.297Z,94285.28
2022-09-07T20:21:42.822Z,94266.50
2022-09-07T20:24:12.495Z,94279.75
2022-09-07T20:26:39.471Z,94273.84
2022-09-07T20:29:26.164Z,94277.66
2022-09-07T20:31:54.087Z,94281.00
2022-09-07T20:34:21.122Z,94267.25
2022-09-07T20:36:50.472Z,94271.28
2022-09-07T20:39:17.694Z,94272.97
2022-09-07T20:41:44.567Z,94269.88
2022-09-07T20:44:11.795Z,94260.00
2022-09-07T20:46:39.088Z,94255.47
2022-09-07T20:49:05.899Z,94262.75
2022-09-07T20:51:32.901Z,94262.31
2022-09-07T20:53:59.672Z,94267.19
2022-09-07T20:56:30.385Z,94271.22
2022-09-07T20:59:00.415Z,94281.69
2022-09-07T21:01:28.609Z,94279.25
2022-09-07T21:03:58.056Z,94273.81
2022-09-07T21:06:26.976Z,94284.09
2022-09-07T21:08:56.962Z,94274.94
2022-09-07T21:11:32.467Z,94292.25
2022-09-07T21:14:08.703Z,94293.66
2022-09-07T21:16:36.301Z,94297.72
2022-09-07T21:19:07.219Z,94290.41
2022-09-07T21:21:38.921Z,94291.09
2022-09-07T21:24:07.883Z,94294.56
2022-09-07T21:26:34.838Z,94294.09
2022-09-07T21:29:05.256Z,94287.38
2022-09-07T21:31:34.302Z,94295.63
2022-09-07T21:34:02.489Z,94287.97
2022-09-07T21:36:29.740Z,94278.69
2022-09-07T21:38:57.199Z,94281.47
2022-09-07T21:41:25.192Z,94277.16
2022-09-07T21:43:56.985Z,94273.69
2022-09-07T21:46:24.479Z,94261.16
2022-09-07T21:48:51.319Z,94261.53
2022-09-07T21:51:18.653Z,94251.22
2022-09-07T21:53:45.419Z,94253.41
2022-09-07T21:56:14.366Z,94250.97
2022-09-07T21:58:43.703Z,94260.13
2022-09-07T22:01:17.267Z,94255.59
2022-09-07T22:03:46.460Z,94249.69
2022-09-07T22:06:14.435Z,94235.91
2022-09-07T22:08:42.633Z,94213.88
2022-09-07T22:11:15.249Z,94190.81
2022-09-07T22:13:43.415Z,94214.34
2022-09-07T22:16:10.436Z,94221.16
2022-09-07T22:18:38.449Z,94207.41
2022-09-07T22:21:07.904Z,94201.59
2022-09-07T22:23:39.149Z,94191.03
2022-09-07T22:26:07.106Z,94190.59
2022-09-07T22:28:34.939Z,94188.50
2022-09-07T22:31:09.557Z,94178.78
2022-09-07T22:33:36.317Z,94154.66
2022-09-07T22:36:18.897Z,94169.38
2022-09-07T22:38:48.941Z,94189.75
2022-09-07T22:41:27.967Z,94204.44
2022-09-07T22:43:56.346Z,94226.69
2022-09-07T22:46:26.380Z,94233.00
2022-09-07T22:48:58.534Z,94250.44
2022-09-07T22:51:26.830Z,94269.56
2022-09-07T22:53:55.333Z,94279.72
2022-09-07T22:56:26.244Z,94280.06
2022-09-07T22:58:57.001Z,94289.88
2022-09-07T23:01:24.784Z,94293.47
2022-09-07T23:03:51.656Z,94299.00
2022-09-07T23:06:24.552Z,94289.50
2022-09-07T23:08:52.653Z,94275.81
2022-09-07T23:11:19.887Z,94270.94
2022-09-07T23:13:52.777Z,94265.97
2022-09-07T23:16:20.691Z,94262.72
2022-09-07T23:18:48.426Z,94247.75
2022-09-07T23:21:17.132Z,94241.66
2022-09-07T23:23:44.093Z,94227.41
2022-09-07T23:26:10.880Z,94232.75
2022-09-07T23:28:37.577Z,94217.31
2022-09-07T23:31:04.339Z,94214.91
2022-09-07T23:33:31.704Z,94208.31
2022-09-07T23:36:02.160Z,94209.91
2022-09-07T23:38:30.108Z,94184.94
2022-09-07T23:40:57.880Z,94170.13
2022-09-07T23:43:27.503Z,94166.13
2022-09-07T23:45:54.710Z,94178.53
2022-09-07T23:48:23.093Z,94179.63
2022-09-07T23:50:50.108Z,94180.19
2022-09-07T23:53:17.980Z,94172.03
2022-09-07T23:55:46.650Z,94163.41
2022-09-07T23:58:13.442Z,94157.41
